sensor_id;sensor_type;location;lat;lon;timestamp;pressure;altitude;pressure_sealevel;temperature;humidity
21086;BME280;34247;50.064;19.970;2023-04-28T00:00:14;99790.75;;;7.04;66.96
21086;BME280;34247;50.064;19.970;2023-04-28T00:01:19;99796.97;;;7.03;67.03
21086;BME280;34247;50.064;19.970;2023-04-28T00:02:23;99799.66;;;7.01;67.40
21086;BME280;34247;50.064;19.970;2023-04-28T00:03:30;99794.09;;;7.07;66.85
21086;BME280;34247;50.064;19.970;2023-04-28T00:04:35;99801.09;;;7.08;66.19
21086;BME280;34247;50.064;19.970;2023-04-28T00:05:40;99795.88;;;7.07;66.29
21086;BME280;34247;50.064;19.970;2023-04-28T00:06:44;99794.94;;;7.08;66.47
21086;BME280;34247;50.064;19.970;2023-04-28T00:07:49;99794.38;;;7.01;66.70
21086;BME280;34247;50.064;19.970;2023-04-28T00:08:53;99786.59;;;6.98;66.80
21086;BME280;34247;50.064;19.970;2023-04-28T00:09:57;99790.94;;;6.99;66.89
21086;BME280;34247;50.064;19.970;2023-04-28T00:11:01;99789.38;;;6.95;66.85
21086;BME280;34247;50.064;19.970;2023-04-28T00:12:10;99788.16;;;7.02;66.34
21086;BME280;34247;50.064;19.970;2023-04-28T00:13:14;99787.88;;;7.08;66.15
21086;BME280;34247;50.064;19.970;2023-04-28T00:14:19;99785.31;;;7.07;66.23
21086;BME280;34247;50.064;19.970;2023-04-28T00:15:24;99786.94;;;7.09;65.91
21086;BME280;34247;50.064;19.970;2023-04-28T00:16:28;99788.53;;;7.13;65.67
21086;BME280;34247;50.064;19.970;2023-04-28T00:17:33;99786.75;;;7.14;65.64
21086;BME280;34247;50.064;19.970;2023-04-28T00:18:37;99786.56;;;7.18;65.38
21086;BME280;34247;50.064;19.970;2023-04-28T00:19:41;99779.47;;;7.19;64.88
21086;BME280;34247;50.064;19.970;2023-04-28T00:20:45;99784.75;;;7.19;65.00
21086;BME280;34247;50.064;19.970;2023-04-28T00:21:50;99785.38;;;7.24;64.60
21086;BME280;34247;50.064;19.970;2023-04-28T00:22:54;99779.03;;;7.28;64.64
21086;BME280;34247;50.064;19.970;2023-04-28T00:23:58;99776.25;;;7.31;64.56
21086;BME280;34247;50.064;19.970;2023-04-28T00:25:03;99782.03;;;7.21;64.83
21086;BME280;34247;50.064;19.970;2023-04-28T00:26:11;99782.63;;;7.27;64.56
21086;BME280;34247;50.064;19.970;2023-04-28T00:27:15;99782.63;;;7.27;64.77
21086;BME280;34247;50.064;19.970;2023-04-28T00:28:19;99785.97;;;7.31;64.57
21086;BME280;34247;50.064;19.970;2023-04-28T00:29:29;99772.63;;;7.34;64.69
21086;BME280;34247;50.064;19.970;2023-04-28T00:30:33;99768.97;;;7.36;64.35
21086;BME280;34247;50.064;19.970;2023-04-28T00:31:37;99778.31;;;7.43;64.05
21086;BME280;34247;50.064;19.970;2023-04-28T00:32:41;99769.41;;;7.46;64.09
21086;BME280;34247;50.064;19.970;2023-04-28T00:33:45;99767.38;;;7.51;63.72
21086;BME280;34247;50.064;19.970;2023-04-28T00:34:49;99772.75;;;7.50;63.78
21086;BME280;34247;50.064;19.970;2023-04-28T00:36:00;99773.03;;;7.43;64.38
21086;BME280;34247;50.064;19.970;2023-04-28T00:37:07;99771.97;;;7.47;64.24
21086;BME280;34247;50.064;19.970;2023-04-28T00:38:11;99767.84;;;7.42;64.24
21086;BME280;34247;50.064;19.970;2023-04-28T00:39:15;99763.47;;;7.41;65.07
21086;BME280;34247;50.064;19.970;2023-04-28T00:40:21;99770.47;;;7.42;65.66
21086;BME280;34247;50.064;19.970;2023-04-28T00:41:27;99771.31;;;7.42;65.73
21086;BME280;34247;50.064;19.970;2023-04-28T00:42:31;99769.75;;;7.38;66.65
21086;BME280;34247;50.064;19.970;2023-04-28T00:43:49;99761.69;;;7.41;65.78
21086;BME280;34247;50.064;19.970;2023-04-28T00:44:53;99760.41;;;7.31;66.06
21086;BME280;34247;50.064;19.970;2023-04-28T00:45:58;99766.34;;;7.36;65.78
21086;BME280;34247;50.064;19.970;2023-04-28T00:47:02;99763.56;;;7.39;65.20
21086;BME280;34247;50.064;19.970;2023-04-28T00:48:12;99768.78;;;7.41;65.27
21086;BME280;34247;50.064;19.970;2023-04-28T00:49:17;99761.69;;;7.41;65.24
21086;BME280;34247;50.064;19.970;2023-04-28T00:50:23;99768.03;;;7.37;65.52
21086;BME280;34247;50.064;19.970;2023-04-28T00:51:27;99761.34;;;7.30;66.14
21086;BME280;34247;50.064;19.970;2023-04-28T00:52:32;99759.63;;;7.29;66.17
21086;BME280;34247;50.064;19.970;2023-04-28T00:53:37;99766.13;;;7.22;66.82
21086;BME280;34247;50.064;19.970;2023-04-28T00:54:41;99763.66;;;7.19;66.58
21086;BME280;34247;50.064;19.970;2023-04-28T00:55:47;99772.75;;;7.31;66.12
21086;BME280;34247;50.064;19.970;2023-04-28T00:56:53;99760.94;;;7.39;65.78
21086;BME280;34247;50.064;19.970;2023-04-28T00:58:01;99768.69;;;7.42;65.54
21086;BME280;34247;50.064;19.970;2023-04-28T00:59:11;99770.41;;;7.43;65.03
21086;BME280;34247;50.064;19.970;2023-04-28T01:00:15;99760.75;;;7.42;64.94
21086;BME280;34247;50.064;19.970;2023-04-28T01:01:19;99760.75;;;7.42;65.34
21086;BME280;34247;50.064;19.970;2023-04-28T01:02:24;99759.19;;;7.38;65.60
21086;BME280;34247;50.064;19.970;2023-04-28T01:03:41;99763.56;;;7.39;66.26
21086;BME280;34247;50.064;19.970;2023-04-28T01:04:47;99765.88;;;7.45;65.30
21086;BME280;34247;50.064;19.970;2023-04-28T01:05:53;99766.81;;;7.44;65.73
21086;BME280;34247;50.064;19.970;2023-04-28T01:07:20;99766.22;;;7.39;66.35
21086;BME280;34247;50.064;19.970;2023-04-28T01:08:29;99765.47;;;7.36;66.45
21086;BME280;34247;50.064;19.970;2023-04-28T01:09:34;99763.13;;;7.30;67.22
21086;BME280;34247;50.064;19.970;2023-04-28T01:10:43;99768.19;;;7.34;66.69
21086;BME280;34247;50.064;19.970;2023-04-28T01:11:50;99762.56;;;7.42;66.55
21086;BME280;34247;50.064;19.970;2023-04-28T01:12:54;99766.03;;;7.42;66.04
21086;BME280;34247;50.064;19.970;2023-04-28T01:13:58;99768.69;;;7.42;65.94
21086;BME280;34247;50.064;19.970;2023-04-28T01:15:03;99777.47;;;7.43;65.95
21086;BME280;34247;50.064;19.970;2023-04-28T01:16:10;99776.81;;;7.38;66.31
21086;BME280;34247;50.064;19.970;2023-04-28T01:17:15;99773.88;;;7.44;66.19
21086;BME280;34247;50.064;19.970;2023-04-28T01:18:21;99772.38;;;7.38;66.80
21086;BME280;34247;50.064;19.970;2023-04-28T01:19:26;99778.75;;;7.34;67.08
21086;BME280;34247;50.064;19.970;2023-04-28T01:20:34;99787.34;;;7.39;67.04
21086;BME280;34247;50.064;19.970;2023-04-28T01:21:38;99775.84;;;7.40;66.78
21086;BME280;34247;50.064;19.970;2023-04-28T01:22:42;99772.09;;;7.44;66.64
21086;BME280;34247;50.064;19.970;2023-04-28T01:23:46;99777.47;;;7.43;66.45
21086;BME280;34247;50.064;19.970;2023-04-28T01:24:50;99780.47;;;7.35;67.63
21086;BME280;34247;50.064;19.970;2023-04-28T01:25:54;99778.13;;;7.29;67.93
21086;BME280;34247;50.064;19.970;2023-04-28T01:26:59;99776.78;;;7.39;67.22
21086;BME280;34247;50.064;19.970;2023-04-28T01:28:03;99774.91;;;7.23;68.77
21086;BME280;34247;50.064;19.970;2023-04-28T01:29:09;99772.69;;;7.13;68.72
21086;BME280;34247;50.064;19.970;2023-04-28T01:30:15;99776.97;;;7.16;68.67
21086;BME280;34247;50.064;19.970;2023-04-28T01:31:19;99774.63;;;7.10;68.94
21086;BME280;34247;50.064;19.970;2023-04-28T01:32:23;99777.19;;;7.11;68.58
21086;BME280;34247;50.064;19.970;2023-04-28T01:33:27;99785.91;;;7.13;68.33
21086;BME280;34247;50.064;19.970;2023-04-28T01:34:31;99783.75;;;7.22;68.05
21086;BME280;34247;50.064;19.970;2023-04-28T01:35:35;99781.03;;;7.23;67.68
21086;BME280;34247;50.064;19.970;2023-04-28T01:36:39;99779.91;;;7.29;67.45
21086;BME280;34247;50.064;19.970;2023-04-28T01:37:43;99780.63;;;7.32;67.27
21086;BME280;34247;50.064;19.970;2023-04-28T01:38:47;99790.03;;;7.38;67.13
21086;BME280;34247;50.064;19.970;2023-04-28T01:39:51;99785.84;;;7.34;67.60
21086;BME280;34247;50.064;19.970;2023-04-28T01:40:55;99793.03;;;7.30;67.65
21086;BME280;34247;50.064;19.970;2023-04-28T01:42:00;99788.03;;;7.24;67.92
21086;BME280;34247;50.064;19.970;2023-04-28T01:43:04;99788.75;;;7.28;67.16
21086;BME280;34247;50.064;19.970;2023-04-28T01:44:13;99785.25;;;7.27;67.46
21086;BME280;34247;50.064;19.970;2023-04-28T01:45:21;99784.13;;;7.33;67.10
21086;BME280;34247;50.064;19.970;2023-04-28T01:46:30;99786.69;;;7.34;66.95
21086;BME280;34247;50.064;19.970;2023-04-28T01:47:38;99785.59;;;7.38;66.66
21086;BME280;34247;50.064;19.970;2023-04-28T01:48:43;99782.06;;;7.39;66.45
21086;BME280;34247;50.064;19.970;2023-04-28T01:49:47;99781.13;;;7.40;66.55
21086;BME280;34247;50.064;19.970;2023-04-28T01:50:52;99785.47;;;7.41;66.37
21086;BME280;34247;50.064;19.970;2023-04-28T01:51:57;99781.19;;;7.39;66.59
21086;BME280;34247;50.064;19.970;2023-04-28T01:53:01;99782.41;;;7.32;67.15
21086;BME280;34247;50.064;19.970;2023-04-28T01:54:05;99784.47;;;7.25;67.91
21086;BME280;34247;50.064;19.970;2023-04-28T01:55:09;99783.69;;;7.23;68.12
21086;BME280;34247;50.064;19.970;2023-04-28T01:56:13;99779.56;;;7.17;68.36
21086;BME280;34247;50.064;19.970;2023-04-28T01:57:17;99780.91;;;7.26;68.17
21086;BME280;34247;50.064;19.970;2023-04-28T01:58:24;99777.19;;;7.30;67.89
21086;BME280;34247;50.064;19.970;2023-04-28T01:59:35;99774.19;;;7.38;67.50
21086;BME280;34247;50.064;19.970;2023-04-28T02:00:40;99782.19;;;7.36;67.47
21086;BME280;34247;50.064;19.970;2023-04-28T02:01:44;99774.41;;;7.33;68.08
21086;BME280;34247;50.064;19.970;2023-04-28T02:02:49;99771.63;;;7.36;67.92
21086;BME280;34247;50.064;19.970;2023-04-28T02:03:53;99776.91;;;7.36;67.69
21086;BME280;34247;50.064;19.970;2023-04-28T02:04:58;99776.78;;;7.39;67.96
21086;BME280;34247;50.064;19.970;2023-04-28T02:06:03;99780.63;;;7.32;68.50
21086;BME280;34247;50.064;19.970;2023-04-28T02:07:15;99777.06;;;7.33;68.66
21086;BME280;34247;50.064;19.970;2023-04-28T02:08:20;99772.47;;;7.37;68.57
21086;BME280;34247;50.064;19.970;2023-04-28T02:09:24;99769.91;;;7.35;68.63
21086;BME280;34247;50.064;19.970;2023-04-28T02:10:28;99777.06;;;7.33;69.23
21086;BME280;34247;50.064;19.970;2023-04-28T02:11:32;99773.69;;;7.30;69.36
21086;BME280;34247;50.064;19.970;2023-04-28T02:12:36;99771.97;;;7.29;69.53
21086;BME280;34247;50.064;19.970;2023-04-28T02:13:40;99776.19;;;7.33;69.45
21086;BME280;34247;50.064;19.970;2023-04-28T02:14:44;99782.91;;;7.40;68.96
21086;BME280;34247;50.064;19.970;2023-04-28T02:15:52;99782.66;;;7.44;68.35
21086;BME280;34247;50.064;19.970;2023-04-28T02:16:57;99785.19;;;7.47;68.50
21086;BME280;34247;50.064;19.970;2023-04-28T02:18:01;99785.31;;;7.44;68.55
21086;BME280;34247;50.064;19.970;2023-04-28T02:19:08;99778.13;;;7.48;68.36
21086;BME280;34247;50.064;19.970;2023-04-28T02:20:13;99778.03;;;7.50;68.35
21086;BME280;34247;50.064;19.970;2023-04-28T02:21:20;99777.34;;;7.46;68.63
21086;BME280;34247;50.064;19.970;2023-04-28T02:22:24;99774.63;;;7.47;68.29
21086;BME280;34247;50.064;19.970;2023-04-28T02:23:28;99773.44;;;7.53;67.97
21086;BME280;34247;50.064;19.970;2023-04-28T02:24:35;99772.59;;;7.53;67.94
21086;BME280;34247;50.064;19.970;2023-04-28T02:25:40;99769.03;;;7.54;68.07
21086;BME280;34247;50.064;19.970;2023-04-28T02:26:44;99779.53;;;7.55;67.77
21086;BME280;34247;50.064;19.970;2023-04-28T02:27:48;99772.47;;;7.56;68.19
21086;BME280;34247;50.064;19.970;2023-04-28T02:28:52;99777.66;;;7.57;68.15
21086;BME280;34247;50.064;19.970;2023-04-28T02:29:57;99784.09;;;7.52;68.57
21086;BME280;34247;50.064;19.970;2023-04-28T02:31:10;99779.03;;;7.47;69.48
21086;BME280;34247;50.064;19.970;2023-04-28T02:32:15;99782.53;;;7.47;69.35
21086;BME280;34247;50.064;19.970;2023-04-28T02:33:19;99786.88;;;7.49;69.16
21086;BME280;34247;50.064;19.970;2023-04-28T02:34:24;99781.44;;;7.52;69.32
21086;BME280;34247;50.064;19.970;2023-04-28T02:35:28;99778.97;;;7.49;69.50
21086;BME280;34247;50.064;19.970;2023-04-28T02:36:32;99778.13;;;7.48;69.43
21086;BME280;34247;50.064;19.970;2023-04-28T02:37:36;99778.03;;;7.50;69.46
21086;BME280;34247;50.064;19.970;2023-04-28T02:38:43;99788.69;;;7.48;69.93
21086;BME280;34247;50.064;19.970;2023-04-28T02:39:48;99781.44;;;7.52;69.83
21086;BME280;34247;50.064;19.970;2023-04-28T02:40:58;99784.81;;;7.55;69.56
21086;BME280;34247;50.064;19.970;2023-04-28T02:42:03;99785.75;;;7.54;69.66
21086;BME280;34247;50.064;19.970;2023-04-28T02:43:08;99786.44;;;7.58;69.39
21086;BME280;34247;50.064;19.970;2023-04-28T02:44:12;99782.75;;;7.62;69.02
21086;BME280;34247;50.064;19.970;2023-04-28T02:45:17;99778.06;;;7.67;68.91
21086;BME280;34247;50.064;19.970;2023-04-28T02:46:21;99782.66;;;7.63;68.92
21086;BME280;34247;50.064;19.970;2023-04-28T02:47:25;99776.66;;;7.60;69.30
21086;BME280;34247;50.064;19.970;2023-04-28T02:48:30;99782.94;;;7.57;69.61
21086;BME280;34247;50.064;19.970;2023-04-28T02:49:35;99771.44;;;7.58;69.96
21086;BME280;34247;50.064;19.970;2023-04-28T02:50:39;99780.94;;;7.62;69.65
21086;BME280;34247;50.064;19.970;2023-04-28T02:51:45;99777.38;;;7.63;69.34
21086;BME280;34247;50.064;19.970;2023-04-28T02:52:49;99776.81;;;7.57;69.56
21086;BME280;34247;50.064;19.970;2023-04-28T02:53:54;99780.00;;;7.63;69.55
21086;BME280;34247;50.064;19.970;2023-04-28T02:54:58;99777.44;;;7.62;69.53
21086;BME280;34247;50.064;19.970;2023-04-28T02:56:02;99774.00;;;7.60;69.42
21086;BME280;34247;50.064;19.970;2023-04-28T02:57:09;99770.59;;;7.58;69.70
21086;BME280;34247;50.064;19.970;2023-04-28T02:58:14;99775.31;;;7.51;70.57
21086;BME280;34247;50.064;19.970;2023-04-28T02:59:19;99779.03;;;7.47;71.10
21086;BME280;34247;50.064;19.970;2023-04-28T03:00:24;99777.53;;;7.41;71.76
21086;BME280;34247;50.064;19.970;2023-04-28T03:01:28;99778.47;;;7.40;71.76
21086;BME280;34247;50.064;19.970;2023-04-28T03:02:32;99774.69;;;7.46;71.32
21086;BME280;34247;50.064;19.970;2023-04-28T03:03:36;99776.31;;;7.49;71.03
21086;BME280;34247;50.064;19.970;2023-04-28T03:04:40;99776.16;;;7.52;70.74
21086;BME280;34247;50.064;19.970;2023-04-28T03:05:44;99781.16;;;7.58;70.23
21086;BME280;34247;50.064;19.970;2023-04-28T03:06:49;99776.88;;;7.55;70.24
21086;BME280;34247;50.064;19.970;2023-04-28T03:07:53;99779.25;;;7.61;70.16
21086;BME280;34247;50.064;19.970;2023-04-28T03:08:56;99777.44;;;7.62;69.56
21086;BME280;34247;50.064;19.970;2023-04-28T03:10:01;99771.22;;;7.63;69.41
21086;BME280;34247;50.064;19.970;2023-04-28T03:11:05;99775.75;;;7.61;69.47
21086;BME280;34247;50.064;19.970;2023-04-28T03:12:17;99775.75;;;7.61;69.52
21086;BME280;34247;50.064;19.970;2023-04-28T03:13:24;99773.16;;;7.59;69.31
21086;BME280;34247;50.064;19.970;2023-04-28T03:14:28;99768.88;;;7.57;69.45
21086;BME280;34247;50.064;19.970;2023-04-28T03:15:32;99772.81;;;7.48;70.00
21086;BME280;34247;50.064;19.970;2023-04-28T03:16:37;99779.97;;;7.46;70.36
21086;BME280;34247;50.064;19.970;2023-04-28T03:17:40;99772.09;;;7.44;70.85
21086;BME280;34247;50.064;19.970;2023-04-28T03:18:45;99773.69;;;7.49;70.24
21086;BME280;34247;50.064;19.970;2023-04-28T03:19:49;99778.81;;;7.52;70.32
21086;BME280;34247;50.064;19.970;2023-04-28T03:20:53;99776.03;;;7.55;69.93
21086;BME280;34247;50.064;19.970;2023-04-28T03:21:57;99774.47;;;7.51;69.81
21086;BME280;34247;50.064;19.970;2023-04-28T03:23:01;99777.88;;;7.53;69.89
21086;BME280;34247;50.064;19.970;2023-04-28T03:24:05;99777.88;;;7.53;69.70
21086;BME280;34247;50.064;19.970;2023-04-28T03:25:09;99774.47;;;7.51;69.62
21086;BME280;34247;50.064;19.970;2023-04-28T03:26:14;99777.94;;;7.51;69.47
21086;BME280;34247;50.064;19.970;2023-04-28T03:27:18;99774.47;;;7.51;69.57
21086;BME280;34247;50.064;19.970;2023-04-28T03:28:22;99779.75;;;7.51;69.36
21086;BME280;34247;50.064;19.970;2023-04-28T03:29:39;99785.03;;;7.51;69.29
21086;BME280;34247;50.064;19.970;2023-04-28T03:30:44;99786.88;;;7.49;69.49
21086;BME280;34247;50.064;19.970;2023-04-28T03:31:48;99783.47;;;7.46;69.41
21086;BME280;34247;50.064;19.970;2023-04-28T03:32:52;99778.25;;;7.45;69.49
21086;BME280;34247;50.064;19.970;2023-04-28T03:33:56;99783.59;;;7.43;69.55
21086;BME280;34247;50.064;19.970;2023-04-28T03:35:01;99781.72;;;7.45;69.50
21086;BME280;34247;50.064;19.970;2023-04-28T03:36:06;99780.88;;;7.45;69.35
21086;BME280;34247;50.064;19.970;2023-04-28T03:37:10;99779.34;;;7.41;69.66
21086;BME280;34247;50.064;19.970;2023-04-28T03:38:14;99782.81;;;7.41;69.62
21086;BME280;34247;50.064;19.970;2023-04-28T03:39:18;99784.63;;;7.41;69.62
21086;BME280;34247;50.064;19.970;2023-04-28T03:40:21;99784.53;;;7.42;69.55
21086;BME280;34247;50.064;19.970;2023-04-28T03:41:25;99780.97;;;7.43;69.57
21086;BME280;34247;50.064;19.970;2023-04-28T03:42:29;99781.13;;;7.40;69.52
21086;BME280;34247;50.064;19.970;2023-04-28T03:43:33;99777.63;;;7.40;69.76
21086;BME280;34247;50.064;19.970;2023-04-28T03:44:40;99783.75;;;7.40;69.50
21086;BME280;34247;50.064;19.970;2023-04-28T03:45:57;99778.47;;;7.40;69.98
21086;BME280;34247;50.064;19.970;2023-04-28T03:47:01;99789.03;;;7.40;69.68
21086;BME280;34247;50.064;19.970;2023-04-28T03:48:06;99788.47;;;7.34;70.14
21086;BME280;34247;50.064;19.970;2023-04-28T03:49:10;99790.25;;;7.33;70.35
21086;BME280;34247;50.064;19.970;2023-04-28T03:50:14;99784.97;;;7.33;70.29
21086;BME280;34247;50.064;19.970;2023-04-28T03:51:18;99789.31;;;7.34;70.26
21086;BME280;34247;50.064;19.970;2023-04-28T03:52:23;99794.03;;;7.28;71.23
21086;BME280;34247;50.064;19.970;2023-04-28T03:53:27;99798.19;;;7.33;70.83
21086;BME280;34247;50.064;19.970;2023-04-28T03:54:31;99791.97;;;7.34;70.82
21086;BME280;34247;50.064;19.970;2023-04-28T03:55:35;99788.41;;;7.35;70.61
21086;BME280;34247;50.064;19.970;2023-04-28T03:56:39;99782.34;;;7.33;70.66
21086;BME280;34247;50.064;19.970;2023-04-28T03:57:42;99791.88;;;7.36;71.05
21086;BME280;34247;50.064;19.970;2023-04-28T03:58:47;99787.63;;;7.33;71.21
21086;BME280;34247;50.064;19.970;2023-04-28T03:59:51;99791.19;;;7.32;71.38
21086;BME280;34247;50.064;19.970;2023-04-28T04:00:55;99794.81;;;7.30;71.52
21086;BME280;34247;50.064;19.970;2023-04-28T04:01:58;99791.47;;;7.26;71.93
21086;BME280;34247;50.064;19.970;2023-04-28T04:03:03;99791.56;;;7.25;72.10
21086;BME280;34247;50.064;19.970;2023-04-28T04:04:07;99792.31;;;7.27;71.97
21086;BME280;34247;50.064;19.970;2023-04-28T04:05:11;99787.91;;;7.27;71.35
21086;BME280;34247;50.064;19.970;2023-04-28T04:06:16;99789.13;;;7.20;72.15
21086;BME280;34247;50.064;19.970;2023-04-28T04:07:21;99790.75;;;7.23;72.35
21086;BME280;34247;50.064;19.970;2023-04-28T04:08:26;99787.41;;;7.19;72.42
21086;BME280;34247;50.064;19.970;2023-04-28T04:09:29;99790.16;;;7.16;72.95
21086;BME280;34247;50.064;19.970;2023-04-28T04:10:33;99788.19;;;7.21;73.15
21086;BME280;34247;50.064;19.970;2023-04-28T04:11:37;99785.69;;;7.18;73.05
21086;BME280;34247;50.064;19.970;2023-04-28T04:12:41;99791.91;;;7.17;73.16
21086;BME280;34247;50.064;19.970;2023-04-28T04:13:45;99789.28;;;7.17;73.00
21086;BME280;34247;50.064;19.970;2023-04-28T04:14:49;99787.47;;;7.17;73.05
21086;BME280;34247;50.064;19.970;2023-04-28T04:15:54;99788.25;;;7.19;73.05
21086;BME280;34247;50.064;19.970;2023-04-28T04:17:02;99792.53;;;7.22;73.04
21086;BME280;34247;50.064;19.970;2023-04-28T04:18:06;99789.75;;;7.25;72.95
21086;BME280;34247;50.064;19.970;2023-04-28T04:19:10;99784.47;;;7.25;72.66
21086;BME280;34247;50.064;19.970;2023-04-28T04:20:14;99790.03;;;7.19;73.00
21086;BME280;34247;50.064;19.970;2023-04-28T04:21:18;99786.75;;;7.14;73.46
21086;BME280;34247;50.064;19.970;2023-04-28T04:22:24;99782.91;;;7.21;73.48
21086;BME280;34247;50.064;19.970;2023-04-28T04:23:30;99778.72;;;7.17;73.28
21086;BME280;34247;50.064;19.970;2023-04-28T04:24:34;99780.69;;;7.12;73.75
21086;BME280;34247;50.064;19.970;2023-04-28T04:25:38;99780.47;;;7.16;73.99
21086;BME280;34247;50.064;19.970;2023-04-28T04:26:42;99786.63;;;7.17;73.95
21086;BME280;34247;50.064;19.970;2023-04-28T04:27:46;99787.53;;;7.16;74.10
21086;BME280;34247;50.064;19.970;2023-04-28T04:28:50;99787.47;;;7.17;73.79
21086;BME280;34247;50.064;19.970;2023-04-28T04:29:54;99782.25;;;7.16;74.20
21086;BME280;34247;50.064;19.970;2023-04-28T04:30:58;99781.63;;;7.11;74.65
21086;BME280;34247;50.064;19.970;2023-04-28T04:32:02;99783.09;;;7.16;74.19
21086;BME280;34247;50.064;19.970;2023-04-28T04:33:06;99790.25;;;7.14;74.51
21086;BME280;34247;50.064;19.970;2023-04-28T04:34:11;99797.31;;;7.14;74.58
21086;BME280;34247;50.064;19.970;2023-04-28T04:35:16;99788.53;;;7.13;74.51
21086;BME280;34247;50.064;19.970;2023-04-28T04:36:19;99789.31;;;7.15;74.72
21086;BME280;34247;50.064;19.970;2023-04-28T04:37:26;99786.06;;;7.10;75.13
21086;BME280;34247;50.064;19.970;2023-04-28T04:38:43;99786.94;;;7.09;75.75
21086;BME280;34247;50.064;19.970;2023-04-28T04:39:48;99780.53;;;7.15;75.44
21086;BME280;34247;50.064;19.970;2023-04-28T04:40:55;99781.34;;;7.17;75.22
21086;BME280;34247;50.064;19.970;2023-04-28T04:42:01;99782.13;;;7.19;74.93
21086;BME280;34247;50.064;19.970;2023-04-28T04:43:19;99781.41;;;7.15;75.86
21086;BME280;34247;50.064;19.970;2023-04-28T04:44:24;99784.59;;;7.22;74.95
21086;BME280;34247;50.064;19.970;2023-04-28T04:45:29;99786.31;;;7.23;75.13
21086;BME280;34247;50.064;19.970;2023-04-28T04:46:33;99791.47;;;7.26;75.46
21086;BME280;34247;50.064;19.970;2023-04-28T04:47:37;99778.34;;;7.25;75.35
21086;BME280;34247;50.064;19.970;2023-04-28T04:48:41;99785.91;;;7.32;75.18
21086;BME280;34247;50.064;19.970;2023-04-28T04:49:47;99784.91;;;7.35;75.09
21086;BME280;34247;50.064;19.970;2023-04-28T04:50:52;99780.63;;;7.32;74.63
21086;BME280;34247;50.064;19.970;2023-04-28T04:51:56;99776.41;;;7.28;75.41
21086;BME280;34247;50.064;19.970;2023-04-28T04:53:01;99783.03;;;7.37;74.96
21086;BME280;34247;50.064;19.970;2023-04-28T04:54:04;99774.91;;;7.41;74.57
21086;BME280;34247;50.064;19.970;2023-04-28T04:55:08;99778.31;;;7.43;74.67
21086;BME280;34247;50.064;19.970;2023-04-28T04:56:14;99776.44;;;7.45;74.51
21086;BME280;34247;50.064;19.970;2023-04-28T04:57:18;99773.44;;;7.53;74.14
21086;BME280;34247;50.064;19.970;2023-04-28T04:58:22;99776.97;;;7.54;73.88
21086;BME280;34247;50.064;19.970;2023-04-28T04:59:26;99771.72;;;7.52;73.78
21086;BME280;34247;50.064;19.970;2023-04-28T05:00:30;99779.53;;;7.55;72.63
21086;BME280;34247;50.064;19.970;2023-04-28T05:01:37;99768.72;;;7.60;72.14
21086;BME280;34247;50.064;19.970;2023-04-28T05:02:41;99771.44;;;7.58;71.87
21086;BME280;34247;50.064;19.970;2023-04-28T05:03:45;99772.94;;;7.64;72.03
21086;BME280;34247;50.064;19.970;2023-04-28T05:04:50;99776.28;;;7.67;71.21
21086;BME280;34247;50.064;19.970;2023-04-28T05:05:55;99775.38;;;7.68;70.64
21086;BME280;34247;50.064;19.970;2023-04-28T05:06:58;99768.34;;;7.67;70.42
21086;BME280;34247;50.064;19.970;2023-04-28T05:08:03;99767.13;;;7.74;69.91
21086;BME280;34247;50.064;19.970;2023-04-28T05:09:08;99779.25;;;7.79;69.29
21086;BME280;34247;50.064;19.970;2023-04-28T05:10:12;99773.59;;;7.86;69.29
21086;BME280;34247;50.064;19.970;2023-04-28T05:11:16;99769.72;;;7.93;68.62
21086;BME280;34247;50.064;19.970;2023-04-28T05:12:23;99770.50;;;7.95;68.12
21086;BME280;34247;50.064;19.970;2023-04-28T05:13:28;99777.75;;;8.09;68.56
21086;BME280;34247;50.064;19.970;2023-04-28T05:14:35;99778.16;;;8.19;68.32
21086;BME280;34247;50.064;19.970;2023-04-28T05:15:39;99772.78;;;8.38;68.04
21086;BME280;34247;50.064;19.970;2023-04-28T05:16:43;99778.44;;;8.65;67.71
21086;BME280;34247;50.064;19.970;2023-04-28T05:17:47;99776.38;;;8.87;67.02
21086;BME280;34247;50.064;19.970;2023-04-28T05:18:52;99781.53;;;9.06;64.85
21086;BME280;34247;50.064;19.970;2023-04-28T05:19:56;99778.56;;;9.28;65.11
21086;BME280;34247;50.064;19.970;2023-04-28T05:20:59;99781.47;;;9.39;63.33
21086;BME280;34247;50.064;19.970;2023-04-28T05:22:04;99776.19;;;9.71;64.33
21086;BME280;34247;50.064;19.970;2023-04-28T05:23:08;99775.88;;;9.91;63.38
21086;BME280;34247;50.064;19.970;2023-04-28T05:24:14;99777.56;;;10.08;61.61
21086;BME280;34247;50.064;19.970;2023-04-28T05:25:18;99775.47;;;10.29;60.69
21086;BME280;34247;50.064;19.970;2023-04-28T05:26:23;99773.63;;;10.45;59.88
21086;BME280;34247;50.064;19.970;2023-04-28T05:27:27;99769.75;;;10.65;59.84
21086;BME280;34247;50.064;19.970;2023-04-28T05:28:31;99772.59;;;10.90;58.80
21086;BME280;34247;50.064;19.970;2023-04-28T05:29:35;99770.06;;;11.03;56.05
21086;BME280;34247;50.064;19.970;2023-04-28T05:30:39;99773.66;;;11.16;54.77
21086;BME280;34247;50.064;19.970;2023-04-28T05:31:47;99773.16;;;11.24;53.43
21086;BME280;34247;50.064;19.970;2023-04-28T05:32:52;99768.38;;;11.29;52.50
21086;BME280;34247;50.064;19.970;2023-04-28T05:33:56;99774.09;;;11.37;51.61
21086;BME280;34247;50.064;19.970;2023-04-28T05:35:01;99777.81;;;11.62;53.48
21086;BME280;34247;50.064;19.970;2023-04-28T05:36:06;99772.47;;;11.76;52.33
21086;BME280;34247;50.064;19.970;2023-04-28T05:37:10;99768.09;;;12.02;50.93
21086;BME280;34247;50.064;19.970;2023-04-28T05:38:15;99771.25;;;12.21;49.66
21086;BME280;34247;50.064;19.970;2023-04-28T05:39:18;99765.16;;;12.06;48.92
21086;BME280;34247;50.064;19.970;2023-04-28T05:40:22;99769.16;;;12.39;50.43
21086;BME280;34247;50.064;19.970;2023-04-28T05:41:27;99763.72;;;12.66;50.61
21086;BME280;34247;50.064;19.970;2023-04-28T05:42:31;99772.91;;;12.87;48.66
21086;BME280;34247;50.064;19.970;2023-04-28T05:43:35;99777.78;;;13.19;47.88
21086;BME280;34247;50.064;19.970;2023-04-28T05:44:38;99772.66;;;13.41;47.99